sensor_id;sensor_type;location;lat;lon;timestamp;P1;durP1;ratioP1;P2;durP2;ratioP2
17253;SDS011;32542;52.832;13.816;2023-04-24T00:01:02;11.77;;;3.25;;
17253;SDS011;32542;52.832;13.816;2023-04-24T00:04:09;8.43;;;2.42;;
17253;SDS011;32542;52.832;13.816;2023-04-24T00:07:15;7.63;;;2.25;;
17253;SDS011;32542;52.832;13.816;2023-04-24T00:10:20;7.68;;;2.30;;
17253;SDS011;32542;52.832;13.816;2023-04-24T00:13:23;5.93;;;2.55;;
17253;SDS011;32542;52.832;13.816;2023-04-24T00:16:26;5.32;;;2.30;;
17253;SDS011;32542;52.832;13.816;2023-04-24T00:19:29;13.40;;;2.50;;
17253;SDS011;32542;52.832;13.816;2023-04-24T00:22:32;10.55;;;2.75;;
17253;SDS011;32542;52.832;13.816;2023-04-24T00:25:36;9.85;;;3.22;;
17253;SDS011;32542;52.832;13.816;2023-04-24T00:28:39;4.63;;;2.40;;
17253;SDS011;32542;52.832;13.816;2023-04-24T00:31:42;6.47;;;2.47;;
17253;SDS011;32542;52.832;13.816;2023-04-24T00:34:45;4.95;;;2.60;;
17253;SDS011;32542;52.832;13.816;2023-04-24T00:37:48;7.75;;;2.47;;
17253;SDS011;32542;52.832;13.816;2023-04-24T00:40:52;6.45;;;2.28;;
17253;SDS011;32542;52.832;13.816;2023-04-24T00:43:56;7.10;;;2.53;;
17253;SDS011;32542;52.832;13.816;2023-04-24T00:46:59;5.65;;;2.58;;
17253;SDS011;32542;52.832;13.816;2023-04-24T00:50:03;9.52;;;2.67;;
17253;SDS011;32542;52.832;13.816;2023-04-24T00:53:06;5.22;;;2.55;;
17253;SDS011;32542;52.832;13.816;2023-04-24T00:56:10;6.43;;;2.00;;
17253;SDS011;32542;52.832;13.816;2023-04-24T00:59:14;7.07;;;2.50;;
17253;SDS011;32542;52.832;13.816;2023-04-24T01:02:18;6.60;;;2.70;;
17253;SDS011;32542;52.832;13.816;2023-04-24T01:05:22;5.78;;;2.40;;
17253;SDS011;32542;52.832;13.816;2023-04-24T01:08:26;3.55;;;2.13;;
17253;SDS011;32542;52.832;13.816;2023-04-24T01:11:32;7.55;;;2.50;;
17253;SDS011;32542;52.832;13.816;2023-04-24T01:14:34;6.55;;;2.75;;
17253;SDS011;32542;52.832;13.816;2023-04-24T01:17:37;4.78;;;2.40;;
17253;SDS011;32542;52.832;13.816;2023-04-24T01:20:41;4.68;;;2.20;;
17253;SDS011;32542;52.832;13.816;2023-04-24T01:23:59;7.82;;;2.58;;
17253;SDS011;32542;52.832;13.816;2023-04-24T01:27:03;8.07;;;2.58;;
17253;SDS011;32542;52.832;13.816;2023-04-24T01:30:06;5.10;;;2.85;;
17253;SDS011;32542;52.832;13.816;2023-04-24T01:33:10;3.85;;;2.20;;
17253;SDS011;32542;52.832;13.816;2023-04-24T01:36:12;5.55;;;2.17;;
17253;SDS011;32542;52.832;13.816;2023-04-24T01:39:17;6.82;;;2.38;;
17253;SDS011;32542;52.832;13.816;2023-04-24T01:42:21;6.00;;;2.67;;
17253;SDS011;32542;52.832;13.816;2023-04-24T01:45:25;6.57;;;2.60;;
17253;SDS011;32542;52.832;13.816;2023-04-24T01:48:27;3.47;;;2.20;;
17253;SDS011;32542;52.832;13.816;2023-04-24T01:51:31;5.15;;;2.35;;
17253;SDS011;32542;52.832;13.816;2023-04-24T01:54:35;7.53;;;2.40;;
17253;SDS011;32542;52.832;13.816;2023-04-24T01:57:38;3.20;;;2.20;;
17253;SDS011;32542;52.832;13.816;2023-04-24T02:00:42;3.83;;;2.30;;
17253;SDS011;32542;52.832;13.816;2023-04-24T02:03:45;3.72;;;2.05;;
17253;SDS011;32542;52.832;13.816;2023-04-24T02:06:48;5.15;;;2.03;;
17253;SDS011;32542;52.832;13.816;2023-04-24T02:09:52;3.38;;;1.90;;
17253;SDS011;32542;52.832;13.816;2023-04-24T02:12:55;3.10;;;1.98;;
17253;SDS011;32542;52.832;13.816;2023-04-24T02:15:58;3.35;;;2.30;;
17253;SDS011;32542;52.832;13.816;2023-04-24T02:19:01;4.20;;;2.05;;
17253;SDS011;32542;52.832;13.816;2023-04-24T02:22:04;6.10;;;2.22;;
17253;SDS011;32542;52.832;13.816;2023-04-24T02:25:10;4.05;;;2.25;;
17253;SDS011;32542;52.832;13.816;2023-04-24T02:28:13;3.38;;;2.05;;
17253;SDS011;32542;52.832;13.816;2023-04-24T02:31:16;3.20;;;2.20;;
17253;SDS011;32542;52.832;13.816;2023-04-24T02:34:18;4.38;;;2.10;;
17253;SDS011;32542;52.832;13.816;2023-04-24T02:37:21;5.85;;;2.42;;
17253;SDS011;32542;52.832;13.816;2023-04-24T02:40:25;4.07;;;2.15;;
17253;SDS011;32542;52.832;13.816;2023-04-24T02:43:28;4.45;;;2.03;;
17253;SDS011;32542;52.832;13.816;2023-04-24T02:46:31;3.35;;;2.40;;
17253;SDS011;32542;52.832;13.816;2023-04-24T02:49:34;3.30;;;1.98;;
17253;SDS011;32542;52.832;13.816;2023-04-24T02:52:37;2.80;;;2.00;;
17253;SDS011;32542;52.832;13.816;2023-04-24T02:55:41;3.95;;;2.25;;
17253;SDS011;32542;52.832;13.816;2023-04-24T02:58:44;5.63;;;2.25;;
17253;SDS011;32542;52.832;13.816;2023-04-24T03:01:47;5.28;;;2.15;;
17253;SDS011;32542;52.832;13.816;2023-04-24T03:04:50;3.92;;;2.20;;
17253;SDS011;32542;52.832;13.816;2023-04-24T03:07:54;5.85;;;2.22;;
17253;SDS011;32542;52.832;13.816;2023-04-24T03:10:58;3.28;;;2.10;;
17253;SDS011;32542;52.832;13.816;2023-04-24T03:14:01;3.35;;;2.05;;
17253;SDS011;32542;52.832;13.816;2023-04-24T03:17:04;3.60;;;2.15;;
17253;SDS011;32542;52.832;13.816;2023-04-24T03:20:07;4.50;;;2.00;;
17253;SDS011;32542;52.832;13.816;2023-04-24T03:23:11;7.45;;;2.20;;
17253;SDS011;32542;52.832;13.816;2023-04-24T03:26:16;3.70;;;2.00;;
17253;SDS011;32542;52.832;13.816;2023-04-24T03:29:33;4.03;;;2.13;;
17253;SDS011;32542;52.832;13.816;2023-04-24T03:32:36;5.75;;;2.10;;
17253;SDS011;32542;52.832;13.816;2023-04-24T03:35:42;3.65;;;1.90;;
17253;SDS011;32542;52.832;13.816;2023-04-24T03:38:46;3.67;;;2.08;;
17253;SDS011;32542;52.832;13.816;2023-04-24T03:41:58;3.05;;;1.95;;
17253;SDS011;32542;52.832;13.816;2023-04-24T03:45:14;3.30;;;2.00;;
17253;SDS011;32542;52.832;13.816;2023-04-24T03:48:21;2.40;;;1.77;;
17253;SDS011;32542;52.832;13.816;2023-04-24T03:51:25;4.28;;;1.80;;
17253;SDS011;32542;52.832;13.816;2023-04-24T03:54:33;3.33;;;1.70;;
17253;SDS011;32542;52.832;13.816;2023-04-24T03:57:37;3.95;;;2.00;;
17253;SDS011;32542;52.832;13.816;2023-04-24T04:00:50;3.35;;;2.10;;
17253;SDS011;32542;52.832;13.816;2023-04-24T04:04:11;2.55;;;1.90;;
17253;SDS011;32542;52.832;13.816;2023-04-24T04:07:15;3.28;;;2.05;;
17253;SDS011;32542;52.832;13.816;2023-04-24T04:10:19;4.25;;;2.33;;
17253;SDS011;32542;52.832;13.816;2023-04-24T04:13:23;4.32;;;2.00;;
17253;SDS011;32542;52.832;13.816;2023-04-24T04:16:26;2.97;;;1.92;;
17253;SDS011;32542;52.832;13.816;2023-04-24T04:19:35;4.47;;;1.95;;
17253;SDS011;32542;52.832;13.816;2023-04-24T04:22:38;4.10;;;1.73;;
17253;SDS011;32542;52.832;13.816;2023-04-24T04:25:47;4.30;;;1.90;;
17253;SDS011;32542;52.832;13.816;2023-04-24T04:28:54;2.70;;;1.80;;
17253;SDS011;32542;52.832;13.816;2023-04-24T04:31:57;2.25;;;1.80;;
17253;SDS011;32542;52.832;13.816;2023-04-24T04:35:01;2.92;;;1.80;;
17253;SDS011;32542;52.832;13.816;2023-04-24T04:38:07;3.42;;;1.90;;
17253;SDS011;32542;52.832;13.816;2023-04-24T04:41:23;2.08;;;1.58;;
17253;SDS011;32542;52.832;13.816;2023-04-24T04:44:28;2.45;;;2.00;;
17253;SDS011;32542;52.832;13.816;2023-04-24T04:47:33;1.77;;;1.58;;
17253;SDS011;32542;52.832;13.816;2023-04-24T04:50:36;2.53;;;1.80;;
17253;SDS011;32542;52.832;13.816;2023-04-24T04:53:41;4.00;;;1.88;;
17253;SDS011;32542;52.832;13.816;2023-04-24T04:56:44;2.88;;;2.00;;
17253;SDS011;32542;52.832;13.816;2023-04-24T04:59:48;2.78;;;1.83;;
17253;SDS011;32542;52.832;13.816;2023-04-24T05:03:03;3.53;;;2.05;;
17253;SDS011;32542;52.832;13.816;2023-04-24T05:06:22;2.30;;;2.00;;
17253;SDS011;32542;52.832;13.816;2023-04-24T05:09:25;2.63;;;1.60;;
17253;SDS011;32542;52.832;13.816;2023-04-24T05:12:35;2.58;;;1.85;;
17253;SDS011;32542;52.832;13.816;2023-04-24T05:15:40;2.90;;;1.58;;
17253;SDS011;32542;52.832;13.816;2023-04-24T05:18:43;3.38;;;2.10;;
17253;SDS011;32542;52.832;13.816;2023-04-24T05:21:49;3.88;;;1.70;;
17253;SDS011;32542;52.832;13.816;2023-04-24T05:24:52;3.33;;;1.85;;
17253;SDS011;32542;52.832;13.816;2023-04-24T05:28:17;2.13;;;1.52;;
17253;SDS011;32542;52.832;13.816;2023-04-24T05:31:31;3.22;;;1.90;;
17253;SDS011;32542;52.832;13.816;2023-04-24T05:34:34;2.28;;;1.65;;
17253;SDS011;32542;52.832;13.816;2023-04-24T05:37:37;3.22;;;1.55;;
17253;SDS011;32542;52.832;13.816;2023-04-24T05:40:41;3.03;;;1.90;;
17253;SDS011;32542;52.832;13.816;2023-04-24T05:43:43;2.58;;;1.85;;
17253;SDS011;32542;52.832;13.816;2023-04-24T05:46:48;2.42;;;1.98;;
17253;SDS011;32542;52.832;13.816;2023-04-24T05:49:51;2.45;;;1.65;;
17253;SDS011;32542;52.832;13.816;2023-04-24T05:52:55;2.67;;;1.80;;
17253;SDS011;32542;52.832;13.816;2023-04-24T05:56:03;1.95;;;1.70;;
17253;SDS011;32542;52.832;13.816;2023-04-24T05:59:06;3.33;;;1.88;;
17253;SDS011;32542;52.832;13.816;2023-04-24T06:02:12;3.30;;;1.90;;
17253;SDS011;32542;52.832;13.816;2023-04-24T06:05:15;1.98;;;1.50;;
17253;SDS011;32542;52.832;13.816;2023-04-24T06:08:18;1.95;;;1.75;;
17253;SDS011;32542;52.832;13.816;2023-04-24T06:11:23;2.47;;;1.77;;
17253;SDS011;32542;52.832;13.816;2023-04-24T06:14:26;3.70;;;2.13;;
17253;SDS011;32542;52.832;13.816;2023-04-24T06:17:50;3.15;;;1.95;;
17253;SDS011;32542;52.832;13.816;2023-04-24T06:20:54;2.60;;;1.60;;
17253;SDS011;32542;52.832;13.816;2023-04-24T06:23:58;2.47;;;1.40;;
17253;SDS011;32542;52.832;13.816;2023-04-24T06:27:01;2.17;;;1.50;;
17253;SDS011;32542;52.832;13.816;2023-04-24T06:30:04;2.60;;;1.60;;
17253;SDS011;32542;52.832;13.816;2023-04-24T06:33:09;2.72;;;2.10;;
17253;SDS011;32542;52.832;13.816;2023-04-24T06:36:21;2.75;;;1.88;;
17253;SDS011;32542;52.832;13.816;2023-04-24T06:39:24;3.22;;;1.92;;
17253;SDS011;32542;52.832;13.816;2023-04-24T06:42:27;2.30;;;1.90;;
17253;SDS011;32542;52.832;13.816;2023-04-24T06:45:29;2.08;;;1.70;;
17253;SDS011;32542;52.832;13.816;2023-04-24T06:48:34;2.58;;;1.90;;
17253;SDS011;32542;52.832;13.816;2023-04-24T06:51:36;2.38;;;1.60;;
17253;SDS011;32542;52.832;13.816;2023-04-24T06:54:41;1.90;;;1.48;;
17253;SDS011;32542;52.832;13.816;2023-04-24T06:57:44;2.38;;;1.65;;
17253;SDS011;32542;52.832;13.816;2023-04-24T07:00:47;2.28;;;1.92;;
17253;SDS011;32542;52.832;13.816;2023-04-24T07:03:51;1.67;;;1.55;;
17253;SDS011;32542;52.832;13.816;2023-04-24T07:06:54;1.98;;;1.70;;
17253;SDS011;32542;52.832;13.816;2023-04-24T07:09:58;2.30;;;1.55;;
17253;SDS011;32542;52.832;13.816;2023-04-24T07:13:01;2.47;;;1.90;;
17253;SDS011;32542;52.832;13.816;2023-04-24T07:16:04;2.63;;;1.63;;
17253;SDS011;32542;52.832;13.816;2023-04-24T07:19:08;3.60;;;1.63;;
17253;SDS011;32542;52.832;13.816;2023-04-24T07:25:36;5.15;;;2.05;;
17253;SDS011;32542;52.832;13.816;2023-04-24T07:28:40;1.88;;;1.50;;
17253;SDS011;32542;52.832;13.816;2023-04-24T07:31:43;4.93;;;1.85;;
17253;SDS011;32542;52.832;13.816;2023-04-24T07:34:48;3.72;;;1.60;;
17253;SDS011;32542;52.832;13.816;2023-04-24T07:37:51;2.38;;;1.80;;
17253;SDS011;32542;52.832;13.816;2023-04-24T07:40:54;2.30;;;1.60;;
17253;SDS011;32542;52.832;13.816;2023-04-24T07:43:57;2.45;;;1.50;;
17253;SDS011;32542;52.832;13.816;2023-04-24T07:47:00;2.63;;;1.52;;
17253;SDS011;32542;52.832;13.816;2023-04-24T07:50:05;1.80;;;1.38;;
17253;SDS011;32542;52.832;13.816;2023-04-24T07:53:08;2.13;;;1.63;;
17253;SDS011;32542;52.832;13.816;2023-04-24T07:56:11;3.65;;;1.60;;
17253;SDS011;32542;52.832;13.816;2023-04-24T07:59:14;2.13;;;1.60;;
17253;SDS011;32542;52.832;13.816;2023-04-24T08:02:17;2.35;;;1.77;;
17253;SDS011;32542;52.832;13.816;2023-04-24T08:05:21;2.78;;;1.50;;
17253;SDS011;32542;52.832;13.816;2023-04-24T08:08:27;2.08;;;1.70;;
17253;SDS011;32542;52.832;13.816;2023-04-24T08:11:29;4.82;;;1.50;;
17253;SDS011;32542;52.832;13.816;2023-04-24T08:14:33;3.05;;;1.98;;
17253;SDS011;32542;52.832;13.816;2023-04-24T08:17:36;1.83;;;1.25;;
17253;SDS011;32542;52.832;13.816;2023-04-24T08:20:40;2.35;;;1.63;;
17253;SDS011;32542;52.832;13.816;2023-04-24T08:23:43;2.00;;;1.45;;
17253;SDS011;32542;52.832;13.816;2023-04-24T08:26:46;3.78;;;1.90;;
17253;SDS011;32542;52.832;13.816;2023-04-24T08:29:52;2.30;;;1.60;;
17253;SDS011;32542;52.832;13.816;2023-04-24T08:32:55;4.03;;;1.60;;
17253;SDS011;32542;52.832;13.816;2023-04-24T08:35:59;4.82;;;1.30;;
17253;SDS011;32542;52.832;13.816;2023-04-24T08:39:02;1.73;;;1.02;;
17253;SDS011;32542;52.832;13.816;2023-04-24T08:42:05;1.85;;;1.02;;
17253;SDS011;32542;52.832;13.816;2023-04-24T08:45:09;2.03;;;1.30;;
17253;SDS011;32542;52.832;13.816;2023-04-24T08:48:14;3.30;;;1.40;;
17253;SDS011;32542;52.832;13.816;2023-04-24T08:51:32;3.03;;;1.20;;
17253;SDS011;32542;52.832;13.816;2023-04-24T08:54:35;2.15;;;1.20;;
17253;SDS011;32542;52.832;13.816;2023-04-24T08:57:39;3.80;;;1.27;;
17253;SDS011;32542;52.832;13.816;2023-04-24T09:00:42;2.63;;;1.40;;
17253;SDS011;32542;52.832;13.816;2023-04-24T09:03:48;1.73;;;1.30;;
17253;SDS011;32542;52.832;13.816;2023-04-24T09:06:53;1.50;;;1.13;;
17253;SDS011;32542;52.832;13.816;2023-04-24T09:09:58;2.97;;;1.20;;
17253;SDS011;32542;52.832;13.816;2023-04-24T09:13:01;3.30;;;1.30;;
17253;SDS011;32542;52.832;13.816;2023-04-24T09:16:04;3.17;;;1.30;;
17253;SDS011;32542;52.832;13.816;2023-04-24T09:19:07;4.18;;;1.42;;
17253;SDS011;32542;52.832;13.816;2023-04-24T09:22:12;4.28;;;1.40;;
17253;SDS011;32542;52.832;13.816;2023-04-24T09:25:14;4.88;;;1.50;;
17253;SDS011;32542;52.832;13.816;2023-04-24T09:28:18;5.30;;;1.15;;
17253;SDS011;32542;52.832;13.816;2023-04-24T09:31:21;4.80;;;1.27;;
17253;SDS011;32542;52.832;13.816;2023-04-24T09:34:24;3.53;;;1.30;;
17253;SDS011;32542;52.832;13.816;2023-04-24T09:37:30;4.97;;;1.48;;
17253;SDS011;32542;52.832;13.816;2023-04-24T09:40:38;10.68;;;1.70;;
17253;SDS011;32542;52.832;13.816;2023-04-24T09:43:42;7.28;;;1.60;;
17253;SDS011;32542;52.832;13.816;2023-04-24T09:46:46;7.03;;;1.70;;
17253;SDS011;32542;52.832;13.816;2023-04-24T09:49:53;7.95;;;1.60;;
17253;SDS011;32542;52.832;13.816;2023-04-24T09:53:02;4.85;;;1.45;;
17253;SDS011;32542;52.832;13.816;2023-04-24T09:56:08;7.70;;;1.58;;
17253;SDS011;32542;52.832;13.816;2023-04-24T09:59:14;5.43;;;1.42;;
17253;SDS011;32542;52.832;13.816;2023-04-24T10:02:18;7.63;;;1.60;;
17253;SDS011;32542;52.832;13.816;2023-04-24T10:05:27;16.83;;;1.83;;
17253;SDS011;32542;52.832;13.816;2023-04-24T10:08:34;7.22;;;1.73;;
17253;SDS011;32542;52.832;13.816;2023-04-24T10:11:37;5.88;;;1.60;;
17253;SDS011;32542;52.832;13.816;2023-04-24T10:14:44;8.82;;;1.58;;
17253;SDS011;32542;52.832;13.816;2023-04-24T10:17:49;5.05;;;1.67;;
17253;SDS011;32542;52.832;13.816;2023-04-24T10:20:54;7.28;;;1.98;;
17253;SDS011;32542;52.832;13.816;2023-04-24T10:23:59;10.30;;;1.60;;
17253;SDS011;32542;52.832;13.816;2023-04-24T10:27:04;9.38;;;1.55;;
17253;SDS011;32542;52.832;13.816;2023-04-24T10:30:08;6.75;;;1.50;;
17253;SDS011;32542;52.832;13.816;2023-04-24T10:33:13;5.40;;;1.30;;
17253;SDS011;32542;52.832;13.816;2023-04-24T10:36:17;3.20;;;1.40;;
17253;SDS011;32542;52.832;13.816;2023-04-24T10:39:22;7.72;;;1.77;;
17253;SDS011;32542;52.832;13.816;2023-04-24T10:42:28;2.15;;;1.35;;
17253;SDS011;32542;52.832;13.816;2023-04-24T10:45:31;6.28;;;1.52;;
17253;SDS011;32542;52.832;13.816;2023-04-24T10:48:34;3.20;;;1.23;;
17253;SDS011;32542;52.832;13.816;2023-04-24T10:55:32;4.90;;;1.50;;
17253;SDS011;32542;52.832;13.816;2023-04-24T10:58:43;7.75;;;2.58;;
17253;SDS011;32542;52.832;13.816;2023-04-24T11:01:52;11.88;;;1.40;;
17253;SDS011;32542;52.832;13.816;2023-04-24T11:04:55;9.90;;;1.52;;
17253;SDS011;32542;52.832;13.816;2023-04-24T11:08:11;7.75;;;1.50;;
17253;SDS011;32542;52.832;13.816;2023-04-24T11:11:17;10.90;;;1.38;;
17253;SDS011;32542;52.832;13.816;2023-04-24T11:14:22;8.52;;;1.80;;
17253;SDS011;32542;52.832;13.816;2023-04-24T11:17:31;5.20;;;1.33;;
17253;SDS011;32542;52.832;13.816;2023-04-24T11:20:35;7.80;;;1.50;;
17253;SDS011;32542;52.832;13.816;2023-04-24T11:23:38;6.50;;;1.50;;
17253;SDS011;32542;52.832;13.816;2023-04-24T11:26:43;6.15;;;1.38;;
17253;SDS011;32542;52.832;13.816;2023-04-24T11:29:47;5.72;;;1.40;;
17253;SDS011;32542;52.832;13.816;2023-04-24T11:32:51;5.57;;;1.35;;
17253;SDS011;32542;52.832;13.816;2023-04-24T11:35:54;9.93;;;1.67;;
17253;SDS011;32542;52.832;13.816;2023-04-24T11:38:57;9.32;;;1.42;;
17253;SDS011;32542;52.832;13.816;2023-04-24T11:42:03;6.78;;;1.48;;
17253;SDS011;32542;52.832;13.816;2023-04-24T11:45:09;9.55;;;1.55;;
17253;SDS011;32542;52.832;13.816;2023-04-24T11:48:13;10.73;;;1.45;;
17253;SDS011;32542;52.832;13.816;2023-04-24T11:51:23;3.72;;;1.33;;
17253;SDS011;32542;52.832;13.816;2023-04-24T11:54:36;10.50;;;1.15;;
17253;SDS011;32542;52.832;13.816;2023-04-24T11:57:41;7.25;;;1.33;;
17253;SDS011;32542;52.832;13.816;2023-04-24T12:00:45;2.90;;;1.23;;
17253;SDS011;32542;52.832;13.816;2023-04-24T12:03:49;7.22;;;1.20;;
17253;SDS011;32542;52.832;13.816;2023-04-24T12:06:58;3.80;;;1.38;;
17253;SDS011;32542;52.832;13.816;2023-04-24T12:10:02;10.57;;;1.58;;
17253;SDS011;32542;52.832;13.816;2023-04-24T12:13:08;5.47;;;1.30;;
17253;SDS011;32542;52.832;13.816;2023-04-24T12:16:12;3.38;;;1.20;;
17253;SDS011;32542;52.832;13.816;2023-04-24T12:19:17;3.53;;;1.30;;
17253;SDS011;32542;52.832;13.816;2023-04-24T12:22:21;3.88;;;1.10;;
17253;SDS011;32542;52.832;13.816;2023-04-24T12:25:25;5.07;;;1.45;;
17253;SDS011;32542;52.832;13.816;2023-04-24T12:28:35;4.22;;;1.38;;
17253;SDS011;32542;52.832;13.816;2023-04-24T12:31:39;5.80;;;1.90;;
17253;SDS011;32542;52.832;13.816;2023-04-24T12:34:43;3.00;;;1.45;;
17253;SDS011;32542;52.832;13.816;2023-04-24T12:37:46;2.45;;;1.20;;
17253;SDS011;32542;52.832;13.816;2023-04-24T12:41:00;2.90;;;1.40;;
17253;SDS011;32542;52.832;13.816;2023-04-24T12:44:10;6.05;;;1.48;;
17253;SDS011;32542;52.832;13.816;2023-04-24T12:47:13;3.05;;;1.08;;
17253;SDS011;32542;52.832;13.816;2023-04-24T12:50:16;1.63;;;1.10;;
17253;SDS011;32542;52.832;13.816;2023-04-24T12:53:19;5.30;;;1.65;;
17253;SDS011;32542;52.832;13.816;2023-04-24T12:56:22;5.95;;;1.50;;
17253;SDS011;32542;52.832;13.816;2023-04-24T12:59:27;4.40;;;1.42;;
17253;SDS011;32542;52.832;13.816;2023-04-24T13:02:30;7.32;;;1.00;;
17253;SDS011;32542;52.832;13.816;2023-04-24T13:05:33;3.05;;;1.50;;
17253;SDS011;32542;52.832;13.816;2023-04-24T13:08:36;5.82;;;1.27;;
17253;SDS011;32542;52.832;13.816;2023-04-24T13:11:39;6.20;;;1.10;;
17253;SDS011;32542;52.832;13.816;2023-04-24T13:14:43;5.28;;;1.55;;
17253;SDS011;32542;52.832;13.816;2023-04-24T13:17:46;5.20;;;1.00;;
17253;SDS011;32542;52.832;13.816;2023-04-24T13:20:49;2.20;;;0.98;;
17253;SDS011;32542;52.832;13.816;2023-04-24T13:23:52;2.63;;;1.20;;
17253;SDS011;32542;52.832;13.816;2023-04-24T13:26:55;5.25;;;1.08;;
17253;SDS011;32542;52.832;13.816;2023-04-24T13:30:00;3.67;;;1.20;;
17253;SDS011;32542;52.832;13.816;2023-04-24T13:33:03;3.92;;;0.95;;
17253;SDS011;32542;52.832;13.816;2023-04-24T13:36:06;4.35;;;1.20;;
17253;SDS011;32542;52.832;13.816;2023-04-24T13:39:09;4.38;;;1.38;;
17253;SDS011;32542;52.832;13.816;2023-04-24T13:42:12;3.28;;;0.90;;
17253;SDS011;32542;52.832;13.816;2023-04-24T13:45:16;2.38;;;1.10;;
17253;SDS011;32542;52.832;13.816;2023-04-24T13:48:26;3.83;;;1.17;;
17253;SDS011;32542;52.832;13.816;2023-04-24T13:51:28;2.53;;;1.02;;
17253;SDS011;32542;52.832;13.816;2023-04-24T13:54:32;6.63;;;0.98;;
17253;SDS011;32542;52.832;13.816;2023-04-24T13:57:35;2.40;;;1.00;;
17253;SDS011;32542;52.832;13.816;2023-04-24T14:00:39;1.98;;;1.00;;
17253;SDS011;32542;52.832;13.816;2023-04-24T14:03:42;3.45;;;1.17;;
17253;SDS011;32542;52.832;13.816;2023-04-24T14:06:46;4.47;;;1.15;;
17253;SDS011;32542;52.832;13.816;2023-04-24T14:09:49;1.58;;;1.00;;
17253;SDS011;32542;52.832;13.816;2023-04-24T14:12:52;5.93;;;1.00;;
17253;SDS011;32542;52.832;13.816;2023-04-24T14:15:56;3.53;;;1.02;;
17253;SDS011;32542;52.832;13.816;2023-04-24T14:19:00;2.13;;;1.05;;
17253;SDS011;32542;52.832;13.816;2023-04-24T14:22:03;0.98;;;0.80;;
17253;SDS011;32542;52.832;13.816;2023-04-24T14:25:06;5.07;;;1.02;;
17253;SDS011;32542;52.832;13.816;2023-04-24T14:28:10;6.07;;;0.90;;
17253;SDS011;32542;52.832;13.816;2023-04-24T14:31:14;3.35;;;1.02;;
17253;SDS011;32542;52.832;13.816;2023-04-24T14:34:17;7.68;;;1.77;;
17253;SDS011;32542;52.832;13.816;2023-04-24T14:37:19;9.02;;;1.23;;
17253;SDS011;32542;52.832;13.816;2023-04-24T14:40:22;5.32;;;1.08;;
17253;SDS011;32542;52.832;13.816;2023-04-24T14:43:45;3.80;;;0.98;;
17253;SDS011;32542;52.832;13.816;2023-04-24T14:46:50;2.97;;;1.10;;
17253;SDS011;32542;52.832;13.816;2023-04-24T14:49:53;4.78;;;1.52;;
17253;SDS011;32542;52.832;13.816;2023-04-24T14:52:55;3.67;;;1.00;;
17253;SDS011;32542;52.832;13.816;2023-04-24T14:55:59;5.68;;;1.20;;
17253;SDS011;32542;52.832;13.816;2023-04-24T14:59:02;6.28;;;1.25;;
17253;SDS011;32542;52.832;13.816;2023-04-24T15:02:06;4.00;;;0.88;;
17253;SDS011;32542;52.832;13.816;2023-04-24T15:05:15;7.38;;;1.33;;
17253;SDS011;32542;52.832;13.816;2023-04-24T15:08:18;4.63;;;1.33;;
17253;SDS011;32542;52.832;13.816;2023-04-24T15:11:21;3.83;;;1.02;;
17253;SDS011;32542;52.832;13.816;2023-04-24T15:14:24;7.50;;;1.83;;
17253;SDS011;32542;52.832;13.816;2023-04-24T15:17:28;4.13;;;1.00;;
17253;SDS011;32542;52.832;13.816;2023-04-24T15:20:31;1.20;;;1.00;;
17253;SDS011;32542;52.832;13.816;2023-04-24T15:23:36;2.55;;;0.98;;
17253;SDS011;32542;52.832;13.816;2023-04-24T15:26:39;5.78;;;1.20;;
17253;SDS011;32542;52.832;13.816;2023-04-24T15:29:42;5.05;;;1.00;;
17253;SDS011;32542;52.832;13.816;2023-04-24T15:32:46;21.75;;;1.42;;
17253;SDS011;32542;52.832;13.816;2023-04-24T15:35:49;6.03;;;1.10;;
17253;SDS011;32542;52.832;13.816;2023-04-24T15:38:52;3.95;;;1.30;;
17253;SDS011;32542;52.832;13.816;2023-04-24T15:41:54;6.13;;;1.15;;
17253;SDS011;32542;52.832;13.816;2023-04-24T15:44:57;10.80;;;1.20;;
17253;SDS011;32542;52.832;13.816;2023-04-24T15:48:02;6.68;;;1.65;;
17253;SDS011;32542;52.832;13.816;2023-04-24T15:51:05;7.72;;;1.20;;
17253;SDS011;32542;52.832;13.816;2023-04-24T15:54:08;3.63;;;1.00;;
17253;SDS011;32542;52.832;13.816;2023-04-24T15:57:10;5.68;;;1.23;;
17253;SDS011;32542;52.832;13.816;2023-04-24T16:00:15;8.38;;;1.13;;
17253;SDS011;32542;52.832;13.816;2023-04-24T16:03:20;4.60;;;1.20;;
17253;SDS011;32542;52.832;13.816;2023-04-24T16:06:24;3.70;;;0.95;;
17253;SDS011;32542;52.832;13.816;2023-04-24T16:09:28;5.47;;;1.17;;
17253;SDS011;32542;52.832;13.816;2023-04-24T16:12:30;3.60;;;1.40;;
17253;SDS011;32542;52.832;13.816;2023-04-24T16:15:33;3.30;;;1.25;;
17253;SDS011;32542;52.832;13.816;2023-04-24T16:18:39;4.95;;;1.50;;
17253;SDS011;32542;52.832;13.816;2023-04-24T16:21:42;3.55;;;0.82;;
17253;SDS011;32542;52.832;13.816;2023-04-24T16:24:44;4.40;;;1.05;;
17253;SDS011;32542;52.832;13.816;2023-04-24T16:27:48;3.28;;;0.80;;
17253;SDS011;32542;52.832;13.816;2023-04-24T16:30:53;4.30;;;0.98;;
17253;SDS011;32542;52.832;13.816;2023-04-24T16:33:57;4.95;;;1.35;;
17253;SDS011;32542;52.832;13.816;2023-04-24T16:37:00;3.88;;;1.00;;
17253;SDS011;32542;52.832;13.816;2023-04-24T16:40:03;4.22;;;0.90;;
17253;SDS011;32542;52.832;13.816;2023-04-24T16:43:11;2.90;;;1.13;;
17253;SDS011;32542;52.832;13.816;2023-04-24T16:46:13;3.63;;;1.42;;
17253;SDS011;32542;52.832;13.816;2023-04-24T16:49:18;3.80;;;0.82;;
17253;SDS011;32542;52.832;13.816;2023-04-24T16:52:21;4.95;;;1.08;;
17253;SDS011;32542;52.832;13.816;2023-04-24T16:55:23;3.35;;;1.00;;
17253;SDS011;32542;52.832;13.816;2023-04-24T16:58:26;4.50;;;1.48;;
17253;SDS011;32542;52.832;13.816;2023-04-24T17:01:29;2.22;;;0.90;;
17253;SDS011;32542;52.832;13.816;2023-04-24T17:04:33;4.13;;;0.93;;
17253;SDS011;32542;52.832;13.816;2023-04-24T17:07:37;2.25;;;1.00;;
17253;SDS011;32542;52.832;13.816;2023-04-24T17:10:39;3.97;;;1.15;;
17253;SDS011;32542;52.832;13.816;2023-04-24T17:13:42;3.92;;;0.88;;
17253;SDS011;32542;52.832;13.816;2023-04-24T17:16:45;2.03;;;1.00;;
17253;SDS011;32542;52.832;13.816;2023-04-24T17:19:50;5.53;;;1.20;;
17253;SDS011;32542;52.832;13.816;2023-04-24T17:22:55;2.50;;;1.10;;
17253;SDS011;32542;52.832;13.816;2023-04-24T17:25:58;2.78;;;1.00;;
17253;SDS011;32542;52.832;13.816;2023-04-24T17:29:01;2.00;;;1.00;;
17253;SDS011;32542;52.832;13.816;2023-04-24T17:32:04;9.02;;;1.00;;
17253;SDS011;32542;52.832;13.816;2023-04-24T17:35:09;5.28;;;1.20;;
17253;SDS011;32542;52.832;13.816;2023-04-24T17:38:12;2.83;;;1.10;;
17253;SDS011;32542;52.832;13.816;2023-04-24T17:41:15;5.05;;;1.67;;
17253;SDS011;32542;52.832;13.816;2023-04-24T17:44:18;7.97;;;1.25;;
17253;SDS011;32542;52.832;13.816;2023-04-24T17:47:21;7.30;;;1.92;;
17253;SDS011;32542;52.832;13.816;2023-04-24T17:50:27;3.05;;;1.13;;
17253;SDS011;32542;52.832;13.816;2023-04-24T17:53:30;10.27;;;1.50;;
17253;SDS011;32542;52.832;13.816;2023-04-24T17:56:33;4.88;;;1.30;;
17253;SDS011;32542;52.832;13.816;2023-04-24T17:59:36;7.93;;;1.90;;
17253;SDS011;32542;52.832;13.816;2023-04-24T18:02:39;4.25;;;1.73;;
17253;SDS011;32542;52.832;13.816;2023-04-24T18:05:43;5.47;;;1.42;;
17253;SDS011;32542;52.832;13.816;2023-04-24T18:08:46;4.90;;;1.55;;
17253;SDS011;32542;52.832;13.816;2023-04-24T18:11:49;16.48;;;1.85;;
17253;SDS011;32542;52.832;13.816;2023-04-24T18:14:52;6.15;;;1.35;;
17253;SDS011;32542;52.832;13.816;2023-04-24T18:18:13;2.22;;;1.10;;
17253;SDS011;32542;52.832;13.816;2023-04-24T18:21:19;3.28;;;1.40;;